Holmesville, Ohio
Current Conditions -  °F | °C
As of 6:56 PM on Sunday 21 Dec 2014 (Local Time) from KBJJ Reporting Station
Clear Clear  
Wind Chill: 19°   Ceiling: Unl
Heat Index: 27°   Visibility: 7mi
Dew Point: 22°   Wind: 7mph
Humidity: 81%   Direction: 130°SE
Pressure: 30.23"   Gusts: NA
Location:  40.63°N, 81.92°W
Report Text: KBJJ 212356Z AUTO 13006KT 7SM CLR M03/M06 A3023 RMK AO2 SLP251 T10281056 11011 21028 58003 TSNO
Loading
Personal Weather Stations






























Interactive Weather Map New forecast layout! Learn more

10-Day Weather Forecast

Advertisements
Track Severe Weather on mobile